Holt, Michigan
Current Conditions -  °F | °C
As of 11:35 PM on Wednesday 28 Jan 2015 (Local Time) from KTEW Reporting Station
Clear Clear  
Wind Chill: 13°   Ceiling: Unl
Heat Index: 24°   Visibility: 10mi
Dew Point: 15°   Wind: 12mph
Humidity: 69%   Direction: 150°SSE
Pressure: 30.04"   Gusts: 20mph
Location:  42.64°N, 84.51°W
Report Text: KTEW 290435Z AUTO 15010G17KT 10SM CLR M04/M09 A3004 RMK AO2 T10451094
Loading
Personal Weather Stations






























Interactive Weather Map New forecast layout! Learn more

10-Day Weather Forecast

Advertisements
Track Severe Weather on mobile